createdAt,value
2022-10-23T00:04:34.129Z,36.47
2022-10-23T00:09:37.484Z,36.92
2022-10-23T00:14:42.218Z,37.05
2022-10-23T00:19:45.603Z,36.97
2022-10-23T00:24:48.962Z,34.00
2022-10-23T00:29:53.826Z,34.25
2022-10-23T00:34:57.210Z,32.58
2022-10-23T00:40:00.592Z,33.67
2022-10-23T00:45:18.863Z,34.35
2022-10-23T00:50:25.733Z,34.50
2022-10-23T00:55:30.336Z,32.38
2022-10-23T01:00:45.720Z,33.55
2022-10-23T01:05:54.506Z,34.83
2022-10-23T01:11:04.222Z,34.45
2022-10-23T01:16:18.082Z,36.88
2022-10-23T01:21:28.770Z,38.58
2022-10-23T01:26:45.409Z,37.88
2022-10-23T01:32:00.012Z,36.97
2022-10-23T01:37:06.494Z,35.90
2022-10-23T01:42:13.392Z,37.03
2022-10-23T01:52:39.299Z,35.05
2022-10-23T01:57:45.231Z,36.65
2022-10-23T02:02:52.542Z,37.33
2022-10-23T02:07:59.144Z,42.03
2022-10-23T02:13:08.364Z,38.78
2022-10-23T02:18:24.729Z,37.97
2022-10-23T02:23:33.537Z,37.35
2022-10-23T02:28:42.524Z,37.17
2022-10-23T02:33:48.819Z,34.95
2022-10-23T02:38:52.249Z,35.70
2022-10-23T02:44:08.773Z,35.50
2022-10-23T02:49:20.032Z,34.38
2022-10-23T02:54:38.428Z,33.67
2022-10-23T02:59:46.402Z,31.92
2022-10-23T03:04:54.002Z,32.05
2022-10-23T03:09:57.390Z,31.63
2022-10-23T03:15:00.788Z,32.17
2022-10-23T03:20:08.420Z,31.23
2022-10-23T03:25:12.517Z,33.25
2022-10-23T03:30:15.907Z,35.08
2022-10-23T03:35:20.759Z,37.42
2022-10-23T03:40:24.098Z,30.27
2022-10-23T03:45:27.900Z,31.15
2022-10-23T03:50:32.734Z,32.83
2022-10-23T03:55:36.067Z,28.95
2022-10-23T04:00:39.517Z,28.10
2022-10-23T04:05:45.661Z,27.20
2022-10-23T04:10:49.201Z,25.35
2022-10-23T04:15:56.597Z,27.85
2022-10-23T04:21:01.728Z,28.60
2022-10-23T04:26:05.323Z,28.52
2022-10-23T04:31:09.183Z,29.83
2022-10-23T04:36:18.131Z,29.23
2022-10-23T04:41:21.529Z,30.45
2022-10-23T04:46:25.001Z,40.83
2022-10-23T04:51:29.937Z,41.83
2022-10-23T04:56:39.298Z,38.83
2022-10-23T05:01:46.079Z,44.33
2022-10-23T05:06:52.332Z,29.38
2022-10-23T05:12:08.606Z,35.67
2022-10-23T05:17:16.910Z,34.83
2022-10-23T05:22:24.010Z,33.17
2022-10-23T05:27:29.477Z,30.73
2022-10-23T05:32:34.272Z,35.05
2022-10-23T05:37:44.849Z,33.08
2022-10-23T05:42:54.477Z,35.55
2022-10-23T05:48:22.122Z,34.33
2022-10-23T05:53:46.095Z,38.78
2022-10-23T05:59:07.786Z,41.60
2022-10-23T06:04:23.813Z,39.83
2022-10-23T06:09:51.477Z,39.00
2022-10-23T06:14:56.258Z,36.58
2022-10-23T06:20:07.849Z,40.00
2022-10-23T06:25:16.752Z,37.00
2022-10-23T06:30:20.641Z,39.90
2022-10-23T06:35:26.016Z,41.33
2022-10-23T06:40:31.189Z,42.67
2022-10-23T06:45:38.270Z,40.35
2022-10-23T06:51:12.668Z,39.88
2022-10-23T06:56:20.614Z,40.63
2022-10-23T07:01:24.285Z,40.78
2022-10-23T07:06:27.824Z,41.72
2022-10-23T07:11:32.759Z,40.35
2022-10-23T07:16:36.187Z,38.67
2022-10-23T07:21:39.827Z,38.22
2022-10-23T07:27:10.208Z,37.97
2022-10-23T07:32:13.781Z,37.63
2022-10-23T07:37:35.672Z,38.63
2022-10-23T07:42:42.731Z,35.67
2022-10-23T07:47:51.874Z,37.08
2022-10-23T07:52:58.652Z,35.72
2022-10-23T07:58:12.917Z,36.90
2022-10-23T08:03:20.607Z,35.47
2022-10-23T08:08:25.952Z,30.70
2022-10-23T08:13:34.562Z,30.17
2022-10-23T08:18:42.827Z,32.63
2022-10-23T08:23:46.738Z,33.10
2022-10-23T08:28:51.647Z,34.75
2022-10-23T08:33:55.208Z,36.42
2022-10-23T08:38:59.577Z,32.13
2022-10-23T08:44:16.734Z,30.00
2022-10-23T08:49:30.808Z,33.38
2022-10-23T08:54:51.003Z,29.42
2022-10-23T08:59:59.916Z,33.53
2022-10-23T09:05:03.502Z,32.23
2022-10-23T09:10:23.865Z,31.13
2022-10-23T09:15:36.835Z,31.50
2022-10-23T09:20:42.355Z,37.22
2022-10-23T09:25:47.466Z,29.27
2022-10-23T09:30:53.193Z,25.90
2022-10-23T09:35:58.739Z,28.25
2022-10-23T09:41:07.257Z,34.35
2022-10-23T09:46:12.192Z,24.20
2022-10-23T09:51:20.927Z,21.70
2022-10-23T09:56:30.706Z,19.63
2022-10-23T10:07:21.234Z,15.23
2022-10-23T10:12:38.708Z,19.30
2022-10-23T10:17:55.916Z,16.25
2022-10-23T10:23:05.653Z,12.70
2022-10-23T10:33:35.623Z,14.10
2022-10-23T10:38:48.962Z,12.38
2022-10-23T10:44:05.938Z,12.63
2022-10-23T10:49:20.100Z,15.45
2022-10-23T10:55:03.747Z,14.00
2022-10-23T11:00:14.995Z,18.13
2022-10-23T11:05:27.791Z,14.52
2022-10-23T11:10:32.106Z,17.45
2022-10-23T11:15:42.108Z,12.57
2022-10-23T11:21:12.537Z,12.60
2022-10-23T11:26:47.962Z,11.73
2022-10-23T11:31:58.894Z,13.27
2022-10-23T11:37:04.977Z,13.68
2022-10-23T11:42:16.793Z,13.88
2022-10-23T11:47:29.875Z,13.68
2022-10-23T11:52:42.075Z,13.10
2022-10-23T11:58:21.263Z,13.43
2022-10-23T12:03:30.617Z,13.63
2022-10-23T12:08:39.941Z,10.73
2022-10-23T12:18:56.889Z,11.65
2022-10-23T12:24:39.770Z,11.50
2022-10-23T12:29:59.495Z,11.52
2022-10-23T12:35:27.700Z,9.45
2022-10-23T12:40:32.699Z,8.63
2022-10-23T12:45:41.701Z,8.82
2022-10-23T12:50:50.662Z,18.52
2022-10-23T13:01:08.593Z,13.98
2022-10-23T13:06:12.822Z,11.02
2022-10-23T13:11:22.947Z,7.55
2022-10-23T13:16:28.646Z,11.52
2022-10-23T13:21:32.785Z,23.83
2022-10-23T13:26:44.988Z,9.70
2022-10-23T13:31:49.735Z,17.25
2022-10-23T13:36:57.787Z,7.50
2022-10-23T13:42:13.477Z,7.55
2022-10-23T13:47:18.548Z,8.38
2022-10-23T13:52:24.514Z,7.53
2022-10-23T13:57:29.480Z,9.70
2022-10-23T14:02:33.070Z,7.50
2022-10-23T14:07:36.670Z,9.63
2022-10-23T14:12:43.159Z,7.28
2022-10-23T14:17:46.930Z,8.65
2022-10-23T14:22:50.446Z,11.68
2022-10-23T14:28:03.367Z,10.07
2022-10-23T14:33:06.797Z,8.05
2022-10-23T14:38:10.626Z,9.48
2022-10-23T14:43:15.345Z,7.85
2022-10-23T14:48:19.515Z,7.05
2022-10-23T14:53:22.901Z,10.55
2022-10-23T14:58:28.560Z,7.47
2022-10-23T15:03:31.929Z,8.80
2022-10-23T15:08:35.796Z,10.93
2022-10-23T15:13:40.944Z,9.55
2022-10-23T15:18:44.385Z,11.65
2022-10-23T15:23:48.552Z,10.45
2022-10-23T15:28:56.503Z,10.75
2022-10-23T15:34:00.900Z,12.88
2022-10-23T15:39:07.002Z,11.50
2022-10-23T15:44:14.833Z,15.38
2022-10-23T15:49:19.014Z,15.68
2022-10-23T15:54:23.201Z,14.90
2022-10-23T15:59:28.702Z,21.13
2022-10-23T16:04:33.238Z,14.82
2022-10-23T16:09:37.334Z,15.77
2022-10-23T16:14:42.113Z,18.08
2022-10-23T16:19:45.499Z,14.05
2022-10-23T16:24:48.888Z,19.48
2022-10-23T16:29:53.860Z,22.73
2022-10-23T16:34:57.234Z,24.35
2022-10-23T16:40:01.868Z,21.60
2022-10-23T16:45:41.920Z,27.42
2022-10-23T16:50:45.417Z,25.27
2022-10-23T16:55:49.342Z,30.75
2022-10-23T17:01:02.440Z,30.67
2022-10-23T17:06:10.287Z,45.97
2022-10-23T17:11:17.433Z,45.78
2022-10-23T17:16:24.002Z,40.60
2022-10-23T17:21:27.547Z,39.55
2022-10-23T17:26:31.463Z,44.80
2022-10-23T17:31:38.276Z,37.58
2022-10-23T17:36:44.530Z,47.22
2022-10-23T17:41:49.005Z,50.50
2022-10-23T17:46:55.033Z,44.47
2022-10-23T17:51:59.162Z,30.40
2022-10-23T17:57:02.594Z,25.40
2022-10-23T18:02:07.965Z,31.95
2022-10-23T18:07:11.689Z,37.78
2022-10-23T18:12:15.155Z,32.55
2022-10-23T18:17:19.934Z,30.23
2022-10-23T18:22:23.347Z,31.92
2022-10-23T18:27:27.125Z,23.33
2022-10-23T18:32:31.897Z,23.40
2022-10-23T18:37:39.028Z,20.33
2022-10-23T18:42:45.342Z,21.23
2022-10-23T18:47:50.742Z,19.63
2022-10-23T18:52:54.721Z,21.00
2022-10-23T18:57:58.269Z,20.58
2022-10-23T19:03:07.066Z,33.17
2022-10-23T19:08:12.832Z,29.42
2022-10-23T19:13:17.087Z,27.02
2022-10-23T19:18:21.997Z,28.40
2022-10-23T19:23:26.418Z,26.02
2022-10-23T19:28:32.966Z,28.13
2022-10-23T19:33:39.780Z,29.58
2022-10-23T19:38:43.468Z,30.85
2022-10-23T19:43:47.168Z,30.23
2022-10-23T19:48:51.942Z,34.30
2022-10-23T19:53:55.649Z,33.88
2022-10-23T19:58:59.305Z,32.08
2022-10-23T20:04:04.230Z,30.85
2022-10-23T20:09:10.501Z,28.42
2022-10-23T20:14:14.423Z,28.58
2022-10-23T20:19:19.373Z,28.27
2022-10-23T20:24:23.275Z,29.98
2022-10-23T20:29:26.877Z,29.27
2022-10-23T20:34:32.279Z,30.70
2022-10-23T20:39:36.786Z,30.02
2022-10-23T20:44:40.276Z,30.73
2022-10-23T20:49:45.066Z,31.45
2022-10-23T20:54:48.865Z,42.92
2022-10-23T20:59:53.890Z,40.00
2022-10-23T21:04:58.632Z,43.83
2022-10-23T21:10:03.797Z,33.72
2022-10-23T21:15:08.852Z,33.60
2022-10-23T21:20:13.706Z,32.03
2022-10-23T21:25:17.180Z,31.92
2022-10-23T21:30:20.581Z,36.13
2022-10-23T21:35:27.811Z,39.53
2022-10-23T21:40:37.292Z,36.58
2022-10-23T21:45:40.746Z,40.78
2022-10-23T21:50:45.509Z,34.75
2022-10-23T21:55:49.022Z,31.85
2022-10-23T22:00:52.443Z,35.72
2022-10-23T22:05:59.208Z,33.28
2022-10-23T22:11:06.128Z,32.97
2022-10-23T22:16:13.787Z,37.05
2022-10-23T22:21:20.802Z,38.55
2022-10-23T22:26:26.473Z,46.40
2022-10-23T22:31:32.114Z,41.63
2022-10-23T22:36:39.141Z,46.25
2022-10-23T22:41:43.300Z,38.55
2022-10-23T22:46:47.004Z,55.80
2022-10-23T22:51:51.897Z,75.50
2022-10-23T22:56:55.465Z,40.95
2022-10-23T23:01:58.774Z,43.80
2022-10-23T23:07:03.603Z,36.17
2022-10-23T23:12:08.162Z,36.60
2022-10-23T23:17:12.223Z,36.78
2022-10-23T23:22:17.515Z,38.40
2022-10-23T23:27:20.961Z,36.05
2022-10-23T23:32:24.446Z,36.40
2022-10-23T23:37:29.328Z,35.83
2022-10-23T23:42:32.922Z,36.50
2022-10-23T23:47:36.446Z,37.88
2022-10-23T23:52:41.264Z,37.65
2022-10-23T23:57:44.935Z,38.50
